createdAt,value
2017-05-27T00:00:02.212Z,0
2017-05-27T00:01:01.632Z,0
2017-05-27T00:02:01.652Z,0
2017-05-27T00:03:01.367Z,0
2017-05-27T00:04:01.397Z,0
2017-05-27T00:05:01.727Z,0
2017-05-27T00:06:01.446Z,0
2017-05-27T00:08:16.714Z,0
2017-05-27T00:10:02.155Z,0
2017-05-27T00:11:01.872Z,0
2017-05-27T00:12:16.506Z,0
2017-05-27T00:14:01.942Z,0
2017-05-27T00:15:01.969Z,0
2017-05-27T00:16:01.986Z,0
2017-05-27T00:17:02.315Z,0
2017-05-27T00:18:02.342Z,0
2017-05-27T00:19:02.362Z,0
2017-05-27T00:20:02.393Z,0
2017-05-27T00:21:02.409Z,0
2017-05-27T00:22:02.439Z,0
2017-05-27T00:23:02.462Z,0
2017-05-27T00:24:16.800Z,0
2017-05-27T00:25:17.126Z,0
2017-05-27T00:26:02.536Z,0
2017-05-27T00:27:17.174Z,0
2017-05-27T00:28:02.590Z,0
2017-05-27T00:29:02.355Z,0
2017-05-27T00:30:02.378Z,0
2017-05-27T00:31:02.652Z,0
2017-05-27T00:32:17.300Z,0
2017-05-27T00:33:02.702Z,0
2017-05-27T00:34:02.424Z,0
2017-05-27T00:35:02.751Z,0
2017-05-27T00:36:02.777Z,0
2017-05-27T00:37:02.800Z,0
2017-05-27T00:38:02.821Z,0
2017-05-27T00:39:02.849Z,0
2017-05-27T00:40:02.868Z,0
2017-05-27T00:41:17.212Z,0
2017-05-27T00:42:02.930Z,0
2017-05-27T00:43:02.942Z,0
2017-05-27T00:44:17.583Z,0
2017-05-27T00:45:02.998Z,0
2017-05-27T00:46:03.016Z,0
2017-05-27T00:47:03.051Z,0
2017-05-27T00:48:02.819Z,0
2017-05-27T00:49:03.094Z,0
2017-05-27T00:50:02.507Z,0
2017-05-27T00:51:02.832Z,0
2017-05-27T00:52:02.922Z,0
2017-05-27T00:53:02.932Z,0
2017-05-27T00:54:02.905Z,0
2017-05-27T00:56:02.954Z,0
2017-05-27T00:57:17.895Z,0
2017-05-27T00:58:03.002Z,0
2017-05-27T00:59:03.080Z,0
2017-05-27T01:00:17.667Z,0
2017-05-27T01:01:03.374Z,0
2017-05-27T01:02:03.097Z,0
2017-05-27T01:03:18.049Z,0
2017-05-27T01:04:03.506Z,0
2017-05-27T01:05:03.172Z,0
2017-05-27T01:06:17.811Z,0
2017-05-27T01:07:18.138Z,0
2017-05-27T01:08:02.939Z,0
2017-05-27T01:09:03.573Z,0
2017-05-27T01:10:18.209Z,0
2017-05-27T01:11:03.616Z,0
2017-05-27T01:12:03.338Z,0
2017-05-27T01:13:03.666Z,0
2017-05-27T01:14:03.387Z,0
2017-05-27T01:15:03.715Z,0
2017-05-27T01:16:18.350Z,0
2017-05-27T01:17:03.764Z,0
2017-05-27T01:18:03.548Z,0
2017-05-27T01:19:03.526Z,0
2017-05-27T01:20:03.545Z,0
2017-05-27T01:21:03.547Z,0
2017-05-27T01:22:03.575Z,0
2017-05-27T01:23:03.908Z,0
2017-05-27T01:24:03.934Z,0
2017-05-27T01:25:18.569Z,0
2017-05-27T01:26:03.972Z,0
2017-05-27T01:27:03.997Z,0
2017-05-27T01:28:04.021Z,0
2017-05-27T01:29:04.050Z,0
2017-05-27T01:30:04.072Z,0
2017-05-27T01:31:18.709Z,0
2017-05-27T01:32:18.437Z,0
2017-05-27T01:34:04.170Z,0
2017-05-27T01:35:03.895Z,0
2017-05-27T01:36:04.261Z,0
2017-05-27T01:37:03.932Z,0
2017-05-27T01:38:04.297Z,0
2017-05-27T01:39:18.904Z,0
2017-05-27T01:40:04.005Z,0
2017-05-27T01:41:18.948Z,0
2017-05-27T01:42:18.971Z,0
2017-05-27T01:43:04.385Z,0
2017-05-27T01:44:04.098Z,0
2017-05-27T01:45:19.042Z,0
2017-05-27T01:46:04.451Z,0
2017-05-27T01:47:18.787Z,0
2017-05-27T01:48:04.504Z,0
2017-05-27T01:51:04.570Z,0
2017-05-27T01:52:04.601Z,0
2017-05-27T01:53:04.619Z,0
2017-05-27T01:54:19.257Z,0
2017-05-27T01:55:04.364Z,0
2017-05-27T01:56:04.687Z,0
2017-05-27T01:57:19.028Z,0
2017-05-27T01:58:04.431Z,0
2017-05-27T01:59:04.774Z,0
2017-05-27T02:00:04.786Z,0
2017-05-27T02:01:19.424Z,0
2017-05-27T02:02:19.446Z,0
2017-05-27T02:03:04.857Z,0
2017-05-27T02:04:04.954Z,0
2017-05-27T02:05:04.904Z,0
2017-05-27T02:06:04.925Z,0
2017-05-27T02:08:04.978Z,0
2017-05-27T02:09:04.997Z,0
2017-05-27T02:10:05.019Z,0
2017-05-27T02:11:04.737Z,0
2017-05-27T02:12:19.736Z,0
2017-05-27T02:13:05.092Z,0
2017-05-27T02:14:19.426Z,0
2017-05-27T02:15:34.065Z,0
2017-05-27T02:16:05.158Z,0
2017-05-27T02:17:05.189Z,0
2017-05-27T02:20:05.257Z,0
2017-05-27T02:21:05.275Z,0
2017-05-27T02:22:05.097Z,0
2017-05-27T02:24:19.668Z,0
2017-05-27T02:25:05.073Z,0
2017-05-27T02:26:05.096Z,0
2017-05-27T02:27:04.813Z,0
2017-05-27T02:28:05.135Z,0
2017-05-27T02:29:34.394Z,0
2017-05-27T02:30:05.194Z,0
2017-05-27T02:31:20.136Z,0
2017-05-27T02:32:05.537Z,0
2017-05-27T02:33:04.952Z,0
2017-05-27T02:34:04.972Z,0
2017-05-27T02:35:19.920Z,0
2017-05-27T02:36:05.323Z,0
2017-05-27T02:38:05.673Z,0
2017-05-27T02:39:05.394Z,0
2017-05-27T02:40:05.416Z,0
2017-05-27T02:41:05.749Z,0
2017-05-27T02:42:20.387Z,0
2017-05-27T02:43:05.799Z,0
2017-05-27T02:44:05.511Z,0
2017-05-27T02:45:34.768Z,0
2017-05-27T02:46:05.557Z,0
2017-05-27T02:47:35.117Z,5
2017-05-27T02:48:05.604Z,5
2017-05-27T02:49:20.565Z,5
2017-05-27T02:50:05.658Z,5
2017-05-27T02:52:06.055Z,5
2017-05-27T02:53:20.645Z,5
2017-05-27T02:54:06.050Z,5
2017-05-27T02:55:05.468Z,5
2017-05-27T02:56:05.491Z,5
2017-05-27T02:57:06.119Z,10
2017-05-27T02:58:05.532Z,10
2017-05-27T02:59:06.163Z,10
2017-05-27T03:00:06.186Z,10
2017-05-27T03:01:05.957Z,10
2017-05-27T03:02:05.927Z,10
2017-05-27T03:03:06.257Z,10
2017-05-27T03:04:06.274Z,15
2017-05-27T03:05:06.299Z,15
2017-05-27T03:06:06.326Z,15
2017-05-27T03:07:20.360Z,15
2017-05-27T03:08:06.370Z,15
2017-05-27T03:10:06.720Z,15
2017-05-27T03:11:06.441Z,20
2017-05-27T03:12:06.464Z,20
2017-05-27T03:13:06.491Z,20
2017-05-27T03:14:06.513Z,20
2017-05-27T03:15:21.154Z,20
2017-05-27T03:16:06.559Z,25
2017-05-27T03:17:06.275Z,25
2017-05-27T03:18:06.612Z,25
2017-05-27T03:19:06.636Z,25
2017-05-27T03:20:20.962Z,25
2017-05-27T03:21:06.372Z,30
2017-05-27T03:22:21.317Z,30
2017-05-27T03:23:06.417Z,30
2017-05-27T03:24:06.745Z,30
2017-05-27T03:26:06.486Z,35
2017-05-27T03:28:06.539Z,35
2017-05-27T03:29:06.263Z,35
2017-05-27T03:30:21.248Z,35
2017-05-27T03:31:21.222Z,40
2017-05-27T03:32:06.929Z,40
2017-05-27T03:33:06.953Z,40
2017-05-27T03:34:06.370Z,40
2017-05-27T03:35:21.615Z,45
2017-05-27T03:36:21.638Z,45
2017-05-27T03:37:07.063Z,45
2017-05-27T03:39:06.791Z,45
2017-05-27T03:41:07.140Z,50
2017-05-27T03:43:06.884Z,55
2017-05-27T03:44:07.211Z,55
2017-05-27T03:45:07.235Z,70
2017-05-27T03:46:07.255Z,75
2017-05-27T03:47:07.280Z,70
2017-05-27T03:48:07.299Z,60
2017-05-27T03:49:07.372Z,70
2017-05-27T03:50:21.964Z,75
2017-05-27T03:51:21.685Z,65
2017-05-27T03:52:21.404Z,60
2017-05-27T03:53:07.414Z,60
2017-05-27T03:54:22.105Z,65
2017-05-27T03:55:07.167Z,65
2017-05-27T03:56:07.484Z,70
2017-05-27T03:57:07.207Z,80
2017-05-27T03:58:07.231Z,85
2017-05-27T03:59:07.555Z,85
2017-05-27T04:00:22.215Z,115
2017-05-27T04:01:21.914Z,115
2017-05-27T04:02:07.627Z,95
2017-05-27T04:03:07.655Z,160
2017-05-27T04:04:07.677Z,175
2017-05-27T04:05:07.701Z,95
2017-05-27T04:06:22.337Z,75
2017-05-27T04:07:07.438Z,85
2017-05-27T04:08:22.381Z,160
2017-05-27T04:09:07.183Z,260
2017-05-27T04:10:22.430Z,335
2017-05-27T04:11:07.843Z,400
2017-05-27T04:12:07.556Z,310
2017-05-27T04:13:07.886Z,260
2017-05-27T04:14:07.909Z,215
2017-05-27T04:15:07.628Z,155
2017-05-27T04:16:07.662Z,135
2017-05-27T04:17:07.376Z,150
2017-05-27T04:18:08.009Z,150
2017-05-27T04:19:08.026Z,130
2017-05-27T04:20:07.747Z,115
2017-05-27T04:21:08.125Z,110
2017-05-27T04:22:07.798Z,115
2017-05-27T04:23:22.743Z,130
2017-05-27T04:24:08.148Z,125
2017-05-27T04:25:08.171Z,105
2017-05-27T04:26:22.811Z,115
2017-05-27T04:28:07.639Z,105
2017-05-27T04:29:08.266Z,115
2017-05-27T04:31:08.318Z,190
2017-05-27T04:32:08.035Z,225
2017-05-27T04:33:08.060Z,300
2017-05-27T04:34:08.086Z,710
2017-05-27T04:35:08.421Z,1075
2017-05-27T04:36:08.137Z,1120
2017-05-27T04:37:08.163Z,1220
2017-05-27T04:38:37.414Z,1290
2017-05-27T04:39:08.207Z,1290
2017-05-27T04:40:08.232Z,1280
2017-05-27T04:41:08.262Z,1275
2017-05-27T04:42:22.903Z,1230
2017-05-27T04:44:08.638Z,1275
2017-05-27T04:45:08.667Z,1315
2017-05-27T04:46:08.697Z,1305
2017-05-27T04:47:08.723Z,1270
2017-05-27T04:49:08.177Z,1340
2017-05-27T04:50:08.813Z,1365
2017-05-27T04:51:08.234Z,1365
2017-05-27T04:52:23.485Z,1375
2017-05-27T04:53:08.903Z,1390
2017-05-27T04:54:08.622Z,1385
2017-05-27T04:55:08.655Z,1320
2017-05-27T04:56:08.691Z,1345
2017-05-27T04:57:23.638Z,1440
2017-05-27T04:58:08.757Z,1460
2017-05-27T05:00:08.511Z,1445
2017-05-27T05:01:08.846Z,1445
2017-05-27T05:02:09.186Z,1435
2017-05-27T05:03:09.214Z,1425
2017-05-27T05:05:09.277Z,1380
2017-05-27T05:06:09.013Z,1415
2017-05-27T05:08:23.697Z,1485
2017-05-27T05:09:23.777Z,1460
2017-05-27T05:10:38.683Z,1430
2017-05-27T05:11:24.098Z,1470
2017-05-27T05:12:08.911Z,1465
2017-05-27T05:13:09.563Z,1455
2017-05-27T05:14:09.588Z,1485
2017-05-27T05:15:09.315Z,1445
2017-05-27T05:16:09.054Z,1335
2017-05-27T05:17:09.090Z,1320
2017-05-27T05:18:09.727Z,1400
2017-05-27T05:19:09.807Z,1455
2017-05-27T05:20:09.484Z,1475
2017-05-27T05:21:24.141Z,1475
2017-05-27T05:22:09.861Z,1465
2017-05-27T05:23:09.593Z,1475
2017-05-27T05:24:09.627Z,1485
2017-05-27T05:25:09.661Z,1460
2017-05-27T05:26:24.621Z,1445
2017-05-27T05:27:10.055Z,1440
2017-05-27T05:28:24.390Z,1495
2017-05-27T05:29:24.435Z,1515
2017-05-27T05:30:10.195Z,1505
2017-05-27T05:31:09.887Z,1500
2017-05-27T05:32:10.226Z,1485
2017-05-27T05:33:09.954Z,1505
2017-05-27T05:34:09.997Z,1490
2017-05-27T05:35:09.721Z,1475
2017-05-27T05:37:10.098Z,1495
2017-05-27T05:38:10.135Z,1490
2017-05-27T05:39:10.171Z,1500
2017-05-27T05:40:10.507Z,1505
2017-05-27T05:42:24.900Z,1485
2017-05-27T05:43:10.625Z,1515
2017-05-27T05:44:10.657Z,1520
2017-05-27T05:48:10.804Z,1510
2017-05-27T05:49:10.842Z,1485
2017-05-27T05:50:09.966Z,1490
2017-05-27T05:51:10.310Z,1510
2017-05-27T05:52:10.350Z,1550
2017-05-27T05:53:10.139Z,1475
2017-05-27T05:54:10.129Z,1440
2017-05-27T05:55:10.758Z,1495
2017-05-27T05:56:10.190Z,1475
2017-05-27T05:57:25.758Z,1420
2017-05-27T05:58:10.572Z,1425
2017-05-27T05:59:10.916Z,1415
2017-05-27T06:00:10.648Z,1360
2017-05-27T06:01:25.909Z,1110
2017-05-27T06:02:25.944Z,1110
2017-05-27T06:03:10.755Z,1135
2017-05-27T06:06:11.175Z,1390
2017-05-27T06:07:11.215Z,1445
2017-05-27T06:08:11.560Z,1465
2017-05-27T06:09:11.597Z,1455
2017-05-27T06:10:11.643Z,1490
2017-05-27T06:11:26.292Z,1455
2017-05-27T06:12:11.704Z,1430
2017-05-27T06:13:11.813Z,1440
2017-05-27T06:14:11.787Z,1515
2017-05-27T06:15:26.136Z,1445
2017-05-27T06:16:26.173Z,1355
2017-05-27T06:17:26.214Z,1400
2017-05-27T06:18:11.636Z,1380
2017-05-27T06:19:11.670Z,1315
2017-05-27T06:20:12.009Z,1365
2017-05-27T06:21:12.049Z,1395
2017-05-27T06:22:12.090Z,1400
2017-05-27T06:23:12.127Z,1390
2017-05-27T06:24:11.556Z,1400
2017-05-27T06:25:26.214Z,1395
2017-05-27T06:26:11.634Z,1400
2017-05-27T06:27:11.974Z,1405
2017-05-27T06:28:26.955Z,1390
2017-05-27T06:29:27.006Z,1420
2017-05-27T06:30:11.791Z,1390
2017-05-27T06:31:12.433Z,1375
2017-05-27T06:32:27.091Z,1375
2017-05-27T06:33:12.206Z,1330
2017-05-27T06:34:12.552Z,1310
2017-05-27T06:35:12.288Z,1325
2017-05-27T06:36:12.629Z,1330
2017-05-27T06:37:12.063Z,1290
2017-05-27T06:38:12.414Z,1285
2017-05-27T06:39:12.158Z,1325
2017-05-27T06:40:11.873Z,1315
2017-05-27T06:41:27.444Z,1330
2017-05-27T06:42:12.254Z,1325
2017-05-27T06:43:12.899Z,1275
2017-05-27T06:44:12.641Z,1285
2017-05-27T06:45:12.977Z,1285
2017-05-27T06:46:12.412Z,1235
2017-05-27T06:47:12.754Z,1210
2017-05-27T06:48:13.100Z,1185
2017-05-27T06:49:13.139Z,1175
2017-05-27T06:50:12.575Z,1185
2017-05-27T06:51:12.914Z,1135
2017-05-27T06:52:13.256Z,1090
2017-05-27T06:53:12.991Z,1065
2017-05-27T06:54:13.036Z,1055
2017-05-27T06:55:13.125Z,1015
2017-05-27T06:56:13.121Z,1000
2017-05-27T06:57:13.153Z,940
2017-05-27T06:58:13.504Z,900
2017-05-27T06:59:13.547Z,835
2017-05-27T07:00:28.197Z,820
2017-05-27T07:01:13.316Z,800
2017-05-27T07:02:12.753Z,780
2017-05-27T07:03:13.444Z,735
2017-05-27T07:04:28.055Z,675
2017-05-27T07:05:13.166Z,670
2017-05-27T07:06:13.814Z,645
2017-05-27T07:08:13.896Z,600
2017-05-27T07:09:13.932Z,595
2017-05-27T07:11:14.015Z,580
2017-05-27T07:12:28.074Z,605
2017-05-27T07:13:14.095Z,625
2017-05-27T07:14:14.134Z,665
2017-05-27T07:15:28.794Z,730
2017-05-27T07:16:28.837Z,805
2017-05-27T07:17:13.645Z,865
2017-05-27T07:18:13.685Z,975
2017-05-27T07:19:13.724Z,1285
2017-05-27T07:22:14.459Z,1330
2017-05-27T07:23:14.495Z,1090
2017-05-27T07:24:14.228Z,1055
2017-05-27T07:25:14.264Z,1070
2017-05-27T07:26:14.610Z,1095
2017-05-27T07:27:14.345Z,1095
2017-05-27T07:28:14.389Z,1040
2017-05-27T07:29:29.350Z,1035
2017-05-27T07:30:14.469Z,1055
2017-05-27T07:31:14.509Z,1035
2017-05-27T07:32:14.548Z,965
2017-05-27T07:34:14.627Z,1095
2017-05-27T07:35:14.969Z,1080
2017-05-27T07:36:29.628Z,1035
2017-05-27T07:38:29.713Z,1020
2017-05-27T07:39:14.519Z,1005
2017-05-27T07:40:15.161Z,980
2017-05-27T07:41:29.827Z,980
2017-05-27T07:42:29.258Z,945
2017-05-27T07:43:29.298Z,915
2017-05-27T07:44:15.017Z,900
2017-05-27T07:45:14.754Z,885
2017-05-27T07:46:15.405Z,875
2017-05-27T07:47:15.184Z,885
2017-05-27T07:48:44.718Z,910
2017-05-27T07:49:30.136Z,895
2017-05-27T07:50:15.555Z,860
2017-05-27T07:51:15.598Z,845
2017-05-27T07:53:15.677Z,895
2017-05-27T07:54:14.804Z,865
2017-05-27T07:55:15.142Z,820
2017-05-27T07:56:15.796Z,800
2017-05-27T07:58:15.867Z,745
2017-05-27T07:59:15.908Z,755
2017-05-27T08:00:15.951Z,765
2017-05-27T08:01:15.992Z,765
2017-05-27T08:02:15.727Z,750
2017-05-27T08:03:15.762Z,745
2017-05-27T08:04:15.804Z,740
2017-05-27T08:05:15.839Z,705
2017-05-27T08:06:16.188Z,675
2017-05-27T08:08:16.011Z,665
2017-05-27T08:10:16.345Z,640
2017-05-27T08:11:16.079Z,625
2017-05-27T08:12:16.489Z,615
2017-05-27T08:13:30.780Z,590
2017-05-27T08:14:16.198Z,585
2017-05-27T08:15:30.549Z,575
2017-05-27T08:16:16.576Z,570
2017-05-27T08:17:31.288Z,560
2017-05-27T08:18:30.977Z,545
2017-05-27T08:19:31.014Z,540
2017-05-27T08:20:16.127Z,535
2017-05-27T08:21:16.469Z,520
2017-05-27T08:22:31.128Z,505
2017-05-27T08:23:16.548Z,495
2017-05-27T08:24:16.590Z,490
2017-05-27T08:25:16.934Z,490
2017-05-27T08:26:16.363Z,475
2017-05-27T08:27:16.401Z,480
2017-05-27T08:28:17.048Z,465
2017-05-27T08:29:17.090Z,465
2017-05-27T08:30:32.119Z,460
2017-05-27T08:31:17.159Z,450
2017-05-27T08:32:16.594Z,450
2017-05-27T08:33:16.329Z,445
2017-05-27T08:34:31.594Z,440
2017-05-27T08:35:31.943Z,435
2017-05-27T08:36:17.049Z,430
2017-05-27T08:37:17.088Z,430
2017-05-27T08:38:32.051Z,430
2017-05-27T08:39:32.096Z,420
2017-05-27T08:40:17.204Z,420
2017-05-27T08:41:17.604Z,415
2017-05-27T08:42:17.583Z,415
2017-05-27T08:43:17.323Z,415
2017-05-27T08:44:17.666Z,415
2017-05-27T08:45:17.703Z,415
2017-05-27T08:46:17.736Z,415
2017-05-27T08:47:17.775Z,415
2017-05-27T08:48:17.826Z,415
2017-05-27T08:49:32.170Z,415
2017-05-27T08:50:17.888Z,415
2017-05-27T08:51:46.865Z,425
2017-05-27T08:52:17.663Z,420
2017-05-27T08:53:17.703Z,420
2017-05-27T08:54:32.358Z,410
2017-05-27T08:55:32.703Z,405
2017-05-27T08:57:18.165Z,405
2017-05-27T08:58:18.193Z,405
2017-05-27T08:59:17.927Z,395
2017-05-27T09:00:18.268Z,395
2017-05-27T09:02:17.745Z,390
2017-05-27T09:03:18.383Z,380
2017-05-27T09:04:18.419Z,370
2017-05-27T09:05:18.152Z,360
2017-05-27T09:06:18.191Z,350
2017-05-27T09:07:32.850Z,340
2017-05-27T09:08:32.888Z,320
2017-05-27T09:10:18.678Z,300
2017-05-27T09:11:33.001Z,295
2017-05-27T09:12:18.419Z,295
2017-05-27T09:13:18.449Z,290
2017-05-27T09:14:18.488Z,290
2017-05-27T09:16:18.616Z,290
2017-05-27T09:17:18.604Z,285
2017-05-27T09:18:18.944Z,285
2017-05-27T09:19:19.032Z,285
2017-05-27T09:20:19.017Z,280
2017-05-27T09:21:19.056Z,280
2017-05-27T09:22:19.085Z,280
2017-05-27T09:23:19.124Z,280
2017-05-27T09:24:19.209Z,280
2017-05-27T09:25:19.198Z,280
2017-05-27T09:26:33.854Z,280
2017-05-27T09:28:19.313Z,275
2017-05-27T09:29:19.398Z,275
2017-05-27T09:30:19.384Z,270
2017-05-27T09:31:19.418Z,270
2017-05-27T09:32:19.457Z,270
2017-05-27T09:33:19.191Z,270
2017-05-27T09:34:19.538Z,265
2017-05-27T09:35:18.955Z,265
2017-05-27T09:36:34.218Z,265
2017-05-27T09:37:19.638Z,265
2017-05-27T09:38:19.370Z,265
2017-05-27T09:39:34.329Z,260
2017-05-27T09:40:19.745Z,260
2017-05-27T09:41:19.482Z,260
2017-05-27T09:42:34.135Z,260
2017-05-27T09:43:19.856Z,260
2017-05-27T09:44:19.895Z,260
2017-05-27T09:46:19.970Z,260
2017-05-27T09:47:34.323Z,255
2017-05-27T09:48:34.051Z,255
2017-05-27T09:49:20.076Z,255
2017-05-27T09:50:20.112Z,255
2017-05-27T09:51:20.147Z,255
2017-05-27T09:52:20.250Z,255
2017-05-27T09:53:20.213Z,255
2017-05-27T09:54:19.949Z,255
2017-05-27T09:55:34.951Z,255
2017-05-27T09:56:19.416Z,255
2017-05-27T09:57:19.462Z,255
2017-05-27T09:58:19.194Z,255
2017-05-27T09:59:19.238Z,255
2017-05-27T10:00:19.561Z,255
2017-05-27T10:01:19.914Z,255
2017-05-27T10:02:19.335Z,255
2017-05-27T10:03:19.371Z,255
2017-05-27T10:04:19.402Z,250
2017-05-27T10:05:19.433Z,250
2017-05-27T10:06:20.089Z,250
2017-05-27T10:07:34.729Z,250
2017-05-27T10:09:20.789Z,250
2017-05-27T10:10:20.218Z,250
2017-05-27T10:11:35.174Z,250
2017-05-27T10:12:20.950Z,245
2017-05-27T10:13:20.929Z,245
2017-05-27T10:14:35.275Z,245
2017-05-27T10:15:20.998Z,245
2017-05-27T10:16:20.728Z,240
2017-05-27T10:17:20.155Z,240
2017-05-27T10:18:20.191Z,235
2017-05-27T10:19:21.134Z,235
2017-05-27T10:20:21.171Z,230
2017-05-27T10:21:20.596Z,230
2017-05-27T10:22:21.241Z,230
2017-05-27T10:23:35.894Z,230
2017-05-27T10:24:21.315Z,230
2017-05-27T10:25:35.662Z,225
2017-05-27T10:26:21.392Z,230
2017-05-27T10:27:35.430Z,225
2017-05-27T10:28:36.070Z,225
2017-05-27T10:29:36.106Z,230
2017-05-27T10:30:36.192Z,225
2017-05-27T10:31:21.555Z,220
2017-05-27T10:33:21.623Z,220
2017-05-27T10:34:21.658Z,220
2017-05-27T10:35:21.696Z,220
2017-05-27T10:36:21.422Z,220
2017-05-27T10:37:21.815Z,220
2017-05-27T10:38:21.805Z,220
2017-05-27T10:39:36.451Z,220
2017-05-27T10:40:21.869Z,220
2017-05-27T10:41:21.903Z,220
2017-05-27T10:42:51.174Z,220
2017-05-27T10:43:21.976Z,220
2017-05-27T10:44:36.624Z,220
2017-05-27T10:45:22.041Z,215
2017-05-27T10:46:36.438Z,220
2017-05-27T10:47:36.724Z,220
2017-05-27T10:48:21.834Z,215
2017-05-27T10:49:22.173Z,220
2017-05-27T10:50:21.907Z,215
2017-05-27T10:51:21.939Z,210
2017-05-27T10:52:21.971Z,210
2017-05-27T10:53:22.010Z,210
2017-05-27T10:54:22.340Z,205
2017-05-27T10:55:36.698Z,205
2017-05-27T10:56:22.416Z,205
2017-05-27T10:57:22.445Z,205
2017-05-27T10:58:22.483Z,205
2017-05-27T10:59:22.514Z,205
2017-05-27T11:00:22.546Z,200
2017-05-27T11:01:22.273Z,200
2017-05-27T11:02:37.230Z,200
2017-05-27T11:03:22.717Z,200
2017-05-27T11:04:21.824Z,200
2017-05-27T11:05:22.410Z,200
2017-05-27T11:07:22.776Z,200
2017-05-27T11:09:22.846Z,200
2017-05-27T11:10:22.878Z,200
2017-05-27T11:11:37.529Z,195
2017-05-27T11:12:23.007Z,195
2017-05-27T11:13:37.593Z,195
2017-05-27T11:14:37.626Z,195
2017-05-27T11:15:23.044Z,190
2017-05-27T11:17:37.726Z,190
2017-05-27T11:18:22.838Z,190
2017-05-27T11:19:23.190Z,190
2017-05-27T11:20:22.904Z,190
2017-05-27T11:21:22.329Z,185
2017-05-27T11:22:22.670Z,185
2017-05-27T11:23:23.011Z,185
2017-05-27T11:24:23.333Z,185
2017-05-27T11:25:37.992Z,185
2017-05-27T11:26:23.095Z,185
2017-05-27T11:27:37.748Z,180
2017-05-27T11:28:23.174Z,180
2017-05-27T11:29:23.199Z,180
2017-05-27T11:30:22.922Z,175
2017-05-27T11:31:23.261Z,180
2017-05-27T11:32:23.593Z,175
2017-05-27T11:33:37.942Z,170
2017-05-27T11:34:23.364Z,170
2017-05-27T11:35:23.387Z,165
2017-05-27T11:36:23.418Z,165
2017-05-27T11:37:23.454Z,165
2017-05-27T11:38:23.190Z,160
2017-05-27T11:39:22.907Z,160
2017-05-27T11:40:23.852Z,160
2017-05-27T11:41:23.582Z,160
2017-05-27T11:42:23.614Z,155
2017-05-27T11:43:23.947Z,155
2017-05-27T11:44:23.679Z,155
2017-05-27T11:45:24.024Z,155
2017-05-27T11:46:24.046Z,155
2017-05-27T11:47:23.773Z,155
2017-05-27T11:48:23.813Z,155
2017-05-27T11:49:38.456Z,155
2017-05-27T11:51:23.899Z,155
2017-05-27T11:53:24.267Z,155
2017-05-27T11:54:24.299Z,155
2017-05-27T11:56:24.360Z,155
2017-05-27T11:57:39.011Z,155
2017-05-27T11:58:24.424Z,155
2017-05-27T11:59:39.076Z,155
2017-05-27T12:00:24.489Z,155
2017-05-27T12:01:23.918Z,155
2017-05-27T12:02:53.787Z,160
2017-05-27T12:03:24.278Z,160
2017-05-27T12:04:54.156Z,160
2017-05-27T12:05:39.271Z,160
2017-05-27T12:06:39.295Z,160
2017-05-27T12:07:24.105Z,160
2017-05-27T12:08:24.738Z,165
2017-05-27T12:09:24.164Z,165
2017-05-27T12:10:24.505Z,165
2017-05-27T12:11:39.159Z,165
2017-05-27T12:12:24.574Z,160
2017-05-27T12:14:24.928Z,160
2017-05-27T12:15:24.353Z,160
2017-05-27T12:16:24.993Z,160
2017-05-27T12:17:53.956Z,160
2017-05-27T12:18:24.451Z,160
2017-05-27T12:19:24.780Z,160
2017-05-27T12:20:39.433Z,160
2017-05-27T12:21:39.767Z,160
2017-05-27T12:23:25.219Z,160
2017-05-27T12:24:25.246Z,160
2017-05-27T12:25:24.970Z,160
2017-05-27T12:26:25.003Z,160
2017-05-27T12:27:24.730Z,160
2017-05-27T12:28:25.066Z,160
2017-05-27T12:29:25.410Z,160
2017-05-27T12:30:25.445Z,160
2017-05-27T12:31:25.164Z,160
2017-05-27T12:32:25.191Z,160
2017-05-27T12:33:24.921Z,160
2017-05-27T12:34:25.563Z,160
2017-05-27T12:35:25.289Z,160
2017-05-27T12:36:25.622Z,160
2017-05-27T12:37:40.270Z,160
2017-05-27T12:38:25.689Z,160
2017-05-27T12:39:25.715Z,160
2017-05-27T12:41:25.485Z,160
2017-05-27T12:42:25.810Z,160
2017-05-27T12:43:25.839Z,160
2017-05-27T12:44:25.566Z,165
2017-05-27T12:45:25.606Z,165
2017-05-27T12:46:25.936Z,165
2017-05-27T12:47:25.673Z,165
2017-05-27T12:48:25.691Z,165
2017-05-27T12:49:26.026Z,165
2017-05-27T12:50:55.293Z,165
2017-05-27T12:51:26.094Z,165
2017-05-27T12:52:40.787Z,165
2017-05-27T12:53:26.153Z,165
2017-05-27T12:54:40.798Z,165
2017-05-27T12:55:26.230Z,165
2017-05-27T12:56:25.336Z,165
2017-05-27T12:57:25.372Z,165
2017-05-27T12:58:25.092Z,165
2017-05-27T12:59:25.143Z,165
2017-05-27T13:00:40.462Z,165
2017-05-27T13:01:25.190Z,165
2017-05-27T13:02:26.435Z,165
2017-05-27T13:03:55.700Z,165
2017-05-27T13:04:26.493Z,165
2017-05-27T13:06:41.224Z,165
2017-05-27T13:07:40.901Z,165
2017-05-27T13:08:26.369Z,165
2017-05-27T13:09:26.347Z,165
2017-05-27T13:10:26.375Z,165
2017-05-27T13:12:26.435Z,165
2017-05-27T13:13:40.793Z,165
2017-05-27T13:14:26.804Z,165
2017-05-27T13:15:26.533Z,165
2017-05-27T13:16:26.863Z,165
2017-05-27T13:17:41.210Z,165
2017-05-27T13:18:26.627Z,165
2017-05-27T13:19:26.659Z,165
2017-05-27T13:20:41.304Z,165
2017-05-27T13:21:41.337Z,165
2017-05-27T13:22:26.748Z,165
2017-05-27T13:23:26.810Z,165
2017-05-27T13:24:41.731Z,165
2017-05-27T13:25:26.545Z,165
2017-05-27T13:26:26.871Z,165
2017-05-27T13:27:27.203Z,165
2017-05-27T13:28:26.628Z,165
2017-05-27T13:29:27.264Z,165
2017-05-27T13:30:26.996Z,165
2017-05-27T13:31:27.028Z,165
2017-05-27T13:32:27.059Z,165
2017-05-27T13:33:26.480Z,165
2017-05-27T13:34:26.814Z,165
2017-05-27T13:35:26.843Z,165
2017-05-27T13:36:41.850Z,165
2017-05-27T13:38:42.163Z,165
2017-05-27T13:39:27.577Z,165
2017-05-27T13:40:42.225Z,165
2017-05-27T13:41:27.641Z,165
2017-05-27T13:42:27.666Z,165
2017-05-27T13:43:27.697Z,165
2017-05-27T13:44:27.732Z,165
2017-05-27T13:45:26.850Z,165
2017-05-27T13:46:27.793Z,165
2017-05-27T13:47:27.518Z,165
2017-05-27T13:48:27.864Z,165
2017-05-27T13:49:27.579Z,165
2017-05-27T13:50:27.613Z,165
2017-05-27T13:51:27.646Z,165
2017-05-27T13:52:42.294Z,165
2017-05-27T13:53:27.401Z,165
2017-05-27T13:54:42.658Z,165
2017-05-27T13:56:42.775Z,170
2017-05-27T13:57:42.747Z,165
2017-05-27T13:58:27.249Z,165
2017-05-27T13:59:28.197Z,165
2017-05-27T14:00:42.542Z,170
2017-05-27T14:03:28.312Z,165
2017-05-27T14:04:27.739Z,165
2017-05-27T14:05:28.433Z,165
2017-05-27T14:06:28.106Z,165
2017-05-27T14:07:28.136Z,165
2017-05-27T14:08:28.469Z,165
2017-05-27T14:09:43.118Z,165
2017-05-27T14:10:28.530Z,165
2017-05-27T14:11:42.874Z,165
2017-05-27T14:12:42.956Z,165
2017-05-27T14:13:28.316Z,165
2017-05-27T14:15:28.680Z,170
2017-05-27T14:16:28.714Z,165
2017-05-27T14:17:43.366Z,165
2017-05-27T14:18:28.472Z,165
2017-05-27T14:19:28.501Z,165
2017-05-27T14:20:28.837Z,165
2017-05-27T14:21:28.261Z,165
2017-05-27T14:22:43.216Z,165
2017-05-27T14:23:28.623Z,170
2017-05-27T14:24:43.290Z,170
2017-05-27T14:25:28.988Z,165
2017-05-27T14:26:43.334Z,165
2017-05-27T14:27:43.668Z,165
2017-05-27T14:28:29.108Z,165
2017-05-27T14:30:29.141Z,165
2017-05-27T14:31:28.872Z,160
2017-05-27T14:32:28.908Z,160
2017-05-27T14:33:28.929Z,160
2017-05-27T14:34:28.961Z,165
2017-05-27T14:35:43.610Z,160
2017-05-27T14:36:43.639Z,160
2017-05-27T14:37:58.291Z,160
2017-05-27T14:38:43.705Z,165
2017-05-27T14:39:29.420Z,160
2017-05-27T14:40:44.068Z,160
2017-05-27T14:41:29.476Z,160
2017-05-27T14:42:29.205Z,160
2017-05-27T14:43:29.542Z,160
2017-05-27T14:44:29.268Z,160
2017-05-27T14:45:29.603Z,160
2017-05-27T14:46:29.634Z,160
2017-05-27T14:47:29.052Z,160
2017-05-27T14:48:29.740Z,160
2017-05-27T14:49:29.726Z,160
2017-05-27T14:50:29.756Z,160
2017-05-27T14:51:29.787Z,160
2017-05-27T14:52:29.814Z,155
2017-05-27T14:53:29.843Z,155
2017-05-27T14:55:29.902Z,155
2017-05-27T14:56:44.562Z,155
2017-05-27T14:57:44.633Z,155
2017-05-27T14:58:29.691Z,155
2017-05-27T14:59:44.349Z,155
2017-05-27T15:00:44.673Z,155
2017-05-27T15:02:30.116Z,155
2017-05-27T15:03:29.847Z,155
2017-05-27T15:04:44.555Z,155